sensor_id;sensor_type;location;lat;lon;timestamp;pressure;altitude;pressure_sealevel;temperature;humidity
76819;BME280;65772;51.096;17.006;2023-11-21T00:02:21;99458.14;;;11.38;73.04
76819;BME280;65772;51.096;17.006;2023-11-21T00:04:51;99461.03;;;11.37;72.99
76819;BME280;65772;51.096;17.006;2023-11-21T00:07:22;99458.11;;;11.34;73.16
76819;BME280;65772;51.096;17.006;2023-11-21T00:09:52;99456.55;;;11.34;73.19
76819;BME280;65772;51.096;17.006;2023-11-21T00:12:25;99459.29;;;11.34;72.93
76819;BME280;65772;51.096;17.006;2023-11-21T00:14:55;99458.10;;;11.32;72.69
76819;BME280;65772;51.096;17.006;2023-11-21T00:17:26;99461.47;;;11.29;72.69
76819;BME280;65772;51.096;17.006;2023-11-21T00:19:57;99463.33;;;11.28;72.90
76819;BME280;65772;51.096;17.006;2023-11-21T00:22:28;99461.09;;;11.26;72.61
76819;BME280;65772;51.096;17.006;2023-11-21T00:24:58;99467.55;;;11.23;72.68
76819;BME280;65772;51.096;17.006;2023-11-21T00:27:29;99474.69;;;11.20;72.60
76819;BME280;65772;51.096;17.006;2023-11-21T00:29:59;99476.72;;;11.19;72.50
76819;BME280;65772;51.096;17.006;2023-11-21T00:32:30;99474.63;;;11.16;72.29
76819;BME280;65772;51.096;17.006;2023-11-21T00:35:00;99475.44;;;11.14;72.50
76819;BME280;65772;51.096;17.006;2023-11-21T00:37:31;99474.91;;;11.11;72.62
76819;BME280;65772;51.096;17.006;2023-11-21T00:40:02;99475.09;;;11.12;72.87
76819;BME280;65772;51.096;17.006;2023-11-21T00:42:36;99478.54;;;11.15;73.07
76819;BME280;65772;51.096;17.006;2023-11-21T00:45:08;99476.17;;;11.17;73.16
76819;BME280;65772;51.096;17.006;2023-11-21T00:47:39;99476.02;;;11.18;72.93
76819;BME280;65772;51.096;17.006;2023-11-21T00:50:10;99474.85;;;11.20;72.93
76819;BME280;65772;51.096;17.006;2023-11-21T00:52:41;99478.63;;;11.21;72.85
76819;BME280;65772;51.096;17.006;2023-11-21T00:55:12;99477.45;;;11.23;72.80
76819;BME280;65772;51.096;17.006;2023-11-21T00:57:43;99475.55;;;11.23;72.83
76819;BME280;65772;51.096;17.006;2023-11-21T01:00:15;99470.44;;;11.23;72.73
76819;BME280;65772;51.096;17.006;2023-11-21T01:02:47;99475.40;;;11.24;72.71
76819;BME280;65772;51.096;17.006;2023-11-21T01:05:18;99473.71;;;11.25;72.76
76819;BME280;65772;51.096;17.006;2023-11-21T01:07:49;99476.96;;;11.25;72.42
76819;BME280;65772;51.096;17.006;2023-11-21T01:10:19;99476.27;;;11.24;72.53
76819;BME280;65772;51.096;17.006;2023-11-21T01:12:50;99476.75;;;11.21;72.55
76819;BME280;65772;51.096;17.006;2023-11-21T01:15:20;99478.06;;;11.17;72.42
76819;BME280;65772;51.096;17.006;2023-11-21T01:17:51;99479.54;;;11.14;72.31
76819;BME280;65772;51.096;17.006;2023-11-21T01:20:22;99479.87;;;11.12;72.55
76819;BME280;65772;51.096;17.006;2023-11-21T01:22:53;99479.85;;;11.10;72.58
76819;BME280;65772;51.096;17.006;2023-11-21T01:25:23;99482.56;;;11.10;72.91
76819;BME280;65772;51.096;17.006;2023-11-21T01:27:54;99485.12;;;11.09;72.95
76819;BME280;65772;51.096;17.006;2023-11-21T01:30:24;99488.55;;;11.09;72.97
76819;BME280;65772;51.096;17.006;2023-11-21T01:32:55;99490.58;;;11.09;73.01
76819;BME280;65772;51.096;17.006;2023-11-21T01:35:26;99487.67;;;11.08;73.08
76819;BME280;65772;51.096;17.006;2023-11-21T01:37:56;99489.20;;;11.07;73.11
76819;BME280;65772;51.096;17.006;2023-11-21T01:40:27;99493.86;;;11.10;73.05
76819;BME280;65772;51.096;17.006;2023-11-21T01:42:58;99492.52;;;11.12;73.05
76819;BME280;65772;51.096;17.006;2023-11-21T01:45:29;99492.70;;;11.15;73.08
76819;BME280;65772;51.096;17.006;2023-11-21T01:48:03;99491.88;;;11.17;72.90
76819;BME280;65772;51.096;17.006;2023-11-21T01:50:36;99492.92;;;11.18;72.83
76819;BME280;65772;51.096;17.006;2023-11-21T01:53:06;99493.96;;;11.18;72.70
76819;BME280;65772;51.096;17.006;2023-11-21T01:55:37;99492.93;;;11.18;72.97
76819;BME280;65772;51.096;17.006;2023-11-21T01:58:08;99489.88;;;11.20;72.87
76819;BME280;65772;51.096;17.006;2023-11-21T02:00:39;99488.71;;;11.21;72.85
76819;BME280;65772;51.096;17.006;2023-11-21T02:03:10;99484.96;;;11.23;72.75
76819;BME280;65772;51.096;17.006;2023-11-21T02:05:41;99488.38;;;11.23;72.73
76819;BME280;65772;51.096;17.006;2023-11-21T02:08:12;99490.08;;;11.21;72.66
76819;BME280;65772;51.096;17.006;2023-11-21T02:10:45;99489.38;;;11.20;72.75
76819;BME280;65772;51.096;17.006;2023-11-21T02:13:15;99490.59;;;11.21;72.49
76819;BME280;65772;51.096;17.006;2023-11-21T02:15:46;99490.55;;;11.19;72.23
76819;BME280;65772;51.096;17.006;2023-11-21T02:18:19;99489.66;;;11.17;72.39
76819;BME280;65772;51.096;17.006;2023-11-21T02:20:51;99493.05;;;11.15;72.61
76819;BME280;65772;51.096;17.006;2023-11-21T02:23:22;99496.13;;;11.16;72.44
76819;BME280;65772;51.096;17.006;2023-11-21T02:25:58;99492.85;;;11.12;72.54
76819;BME280;65772;51.096;17.006;2023-11-21T02:28:28;99491.29;;;11.10;72.45
76819;BME280;65772;51.096;17.006;2023-11-21T02:30:59;99489.74;;;11.09;72.45
76819;BME280;65772;51.096;17.006;2023-11-21T02:33:29;99489.38;;;11.07;72.48
76819;BME280;65772;51.096;17.006;2023-11-21T02:36:04;99489.52;;;11.06;72.70
76819;BME280;65772;51.096;17.006;2023-11-21T02:38:34;99494.83;;;11.07;72.53
76819;BME280;65772;51.096;17.006;2023-11-21T02:41:05;99494.64;;;11.06;72.49
76819;BME280;65772;51.096;17.006;2023-11-21T02:43:36;99495.64;;;11.04;72.39
76819;BME280;65772;51.096;17.006;2023-11-21T02:46:09;99492.71;;;11.01;72.50
76819;BME280;65772;51.096;17.006;2023-11-21T02:48:41;99495.58;;;10.98;72.60
76819;BME280;65772;51.096;17.006;2023-11-21T02:51:12;99495.88;;;10.96;72.95
76819;BME280;65772;51.096;17.006;2023-11-21T02:53:42;99497.27;;;10.97;72.93
76819;BME280;65772;51.096;17.006;2023-11-21T02:56:13;99497.13;;;10.99;73.10
76819;BME280;65772;51.096;17.006;2023-11-21T02:58:44;99500.23;;;11.00;72.92
76819;BME280;65772;51.096;17.006;2023-11-21T03:01:15;99503.13;;;11.01;72.98
76819;BME280;65772;51.096;17.006;2023-11-21T03:03:46;99502.27;;;11.00;72.86
76819;BME280;65772;51.096;17.006;2023-11-21T03:06:17;99505.16;;;11.00;73.30
76819;BME280;65772;51.096;17.006;2023-11-21T03:08:48;99503.64;;;11.01;73.31
76819;BME280;65772;51.096;17.006;2023-11-21T03:11:18;99506.73;;;11.02;73.46
76819;BME280;65772;51.096;17.006;2023-11-21T03:13:49;99508.27;;;11.04;73.35
76819;BME280;65772;51.096;17.006;2023-11-21T03:16:20;99510.55;;;11.07;73.11
76819;BME280;65772;51.096;17.006;2023-11-21T03:18:50;99506.29;;;11.08;73.10
76819;BME280;65772;51.096;17.006;2023-11-21T03:21:22;99507.50;;;11.09;73.43
76819;BME280;65772;51.096;17.006;2023-11-21T03:23:52;99506.98;;;11.09;73.25
76819;BME280;65772;51.096;17.006;2023-11-21T03:26:23;99507.83;;;11.08;73.27
76819;BME280;65772;51.096;17.006;2023-11-21T03:28:53;99508.67;;;11.08;73.32
76819;BME280;65772;51.096;17.006;2023-11-21T03:31:24;99511.45;;;11.11;73.31
76819;BME280;65772;51.096;17.006;2023-11-21T03:33:56;99510.10;;;11.12;73.10
76819;BME280;65772;51.096;17.006;2023-11-21T03:36:27;99510.11;;;11.12;73.22
76819;BME280;65772;51.096;17.006;2023-11-21T03:38:57;99513.16;;;11.10;73.38
76819;BME280;65772;51.096;17.006;2023-11-21T03:41:27;99513.96;;;11.07;73.26
76819;BME280;65772;51.096;17.006;2023-11-21T03:43:58;99518.58;;;11.08;73.46
76819;BME280;65772;51.096;17.006;2023-11-21T03:46:28;99522.02;;;11.09;73.42
76819;BME280;65772;51.096;17.006;2023-11-21T03:48:59;99521.35;;;11.10;73.62
76819;BME280;65772;51.096;17.006;2023-11-21T03:51:29;99517.42;;;11.10;73.38
76819;BME280;65772;51.096;17.006;2023-11-21T03:54:00;99519.48;;;11.10;73.53
76819;BME280;65772;51.096;17.006;2023-11-21T03:56:31;99520.33;;;11.10;73.27
76819;BME280;65772;51.096;17.006;2023-11-21T03:59:02;99520.00;;;11.11;73.14
76819;BME280;65772;51.096;17.006;2023-11-21T04:01:32;99519.48;;;11.11;73.16
76819;BME280;65772;51.096;17.006;2023-11-21T04:04:04;99523.23;;;11.11;73.17
76819;BME280;65772;51.096;17.006;2023-11-21T04:06:35;99524.77;;;11.11;73.10
76819;BME280;65772;51.096;17.006;2023-11-21T04:09:06;99527.50;;;11.10;73.37
76819;BME280;65772;51.096;17.006;2023-11-21T04:11:37;99526.80;;;11.09;73.45
76819;BME280;65772;51.096;17.006;2023-11-21T04:14:07;99524.71;;;11.07;73.39
76819;BME280;65772;51.096;17.006;2023-11-21T04:16:38;99528.11;;;11.06;73.17
76819;BME280;65772;51.096;17.006;2023-11-21T04:19:08;99530.85;;;11.06;73.17
76819;BME280;65772;51.096;17.006;2023-11-21T04:21:39;99530.48;;;11.04;72.98
76819;BME280;65772;51.096;17.006;2023-11-21T04:24:10;99533.70;;;11.04;73.02
76819;BME280;65772;51.096;17.006;2023-11-21T04:26:40;99536.09;;;11.02;72.99
76819;BME280;65772;51.096;17.006;2023-11-21T04:29:11;99534.00;;;10.98;73.08
76819;BME280;65772;51.096;17.006;2023-11-21T04:31:41;99537.73;;;10.96;73.31
76819;BME280;65772;51.096;17.006;2023-11-21T04:34:12;99542.48;;;10.95;73.62
76819;BME280;65772;51.096;17.006;2023-11-21T04:36:42;99538.23;;;10.96;73.45
76819;BME280;65772;51.096;17.006;2023-11-21T04:39:13;99538.77;;;10.97;73.27
76819;BME280;65772;51.096;17.006;2023-11-21T04:41:43;99540.83;;;10.97;73.35
76819;BME280;65772;51.096;17.006;2023-11-21T04:44:14;99540.81;;;10.97;73.41
76819;BME280;65772;51.096;17.006;2023-11-21T04:46:45;99541.15;;;10.97;73.81
76819;BME280;65772;51.096;17.006;2023-11-21T04:49:16;99544.92;;;10.98;73.65
76819;BME280;65772;51.096;17.006;2023-11-21T04:51:47;99551.13;;;11.01;73.34
76819;BME280;65772;51.096;17.006;2023-11-21T04:54:17;99551.98;;;11.02;73.56
76819;BME280;65772;51.096;17.006;2023-11-21T04:56:48;99556.06;;;11.02;73.54
76819;BME280;65772;51.096;17.006;2023-11-21T04:59:18;99561.36;;;11.01;73.33
76819;BME280;65772;51.096;17.006;2023-11-21T05:01:49;99560.83;;;10.99;73.11
76819;BME280;65772;51.096;17.006;2023-11-21T05:04:19;99560.09;;;10.96;73.37
76819;BME280;65772;51.096;17.006;2023-11-21T05:06:51;99560.55;;;10.93;73.34
76819;BME280;65772;51.096;17.006;2023-11-21T05:09:22;99560.67;;;10.90;73.32
76819;BME280;65772;51.096;17.006;2023-11-21T05:11:52;99564.23;;;10.87;73.45
76819;BME280;65772;51.096;17.006;2023-11-21T05:14:23;99570.17;;;10.86;73.58
76819;BME280;65772;51.096;17.006;2023-11-21T05:16:54;99571.39;;;10.87;73.54
76819;BME280;65772;51.096;17.006;2023-11-21T05:19:24;99571.23;;;10.88;73.53
76819;BME280;65772;51.096;17.006;2023-11-21T05:21:56;99573.42;;;10.86;73.79
76819;BME280;65772;51.096;17.006;2023-11-21T05:24:28;99572.36;;;10.84;73.62
76819;BME280;65772;51.096;17.006;2023-11-21T05:26:58;99573.71;;;10.83;73.54
76819;BME280;65772;51.096;17.006;2023-11-21T05:29:29;99573.69;;;10.82;73.64
76819;BME280;65772;51.096;17.006;2023-11-21T05:31:59;99576.60;;;10.82;73.68
76819;BME280;65772;51.096;17.006;2023-11-21T05:34:30;99574.71;;;10.82;73.40
76819;BME280;65772;51.096;17.006;2023-11-21T05:37:00;99576.11;;;10.84;73.53
76819;BME280;65772;51.096;17.006;2023-11-21T05:39:31;99578.88;;;10.86;73.50
76819;BME280;65772;51.096;17.006;2023-11-21T05:42:02;99580.59;;;10.86;73.46
76819;BME280;65772;51.096;17.006;2023-11-21T05:44:33;99582.77;;;10.84;73.82
76819;BME280;65772;51.096;17.006;2023-11-21T05:47:04;99586.66;;;10.82;73.71
76819;BME280;65772;51.096;17.006;2023-11-21T05:49:37;99583.58;;;10.80;73.50
76819;BME280;65772;51.096;17.006;2023-11-21T05:52:07;99588.34;;;10.79;73.78
76819;BME280;65772;51.096;17.006;2023-11-21T05:54:38;99589.86;;;10.78;73.82
76819;BME280;65772;51.096;17.006;2023-11-21T05:57:08;99593.42;;;10.77;73.89
76819;BME280;65772;51.096;17.006;2023-11-21T05:59:39;99592.45;;;10.80;73.97
76819;BME280;65772;51.096;17.006;2023-11-21T06:02:09;99596.89;;;10.80;73.85
76819;BME280;65772;51.096;17.006;2023-11-21T06:04:40;99595.84;;;10.78;73.67
76819;BME280;65772;51.096;17.006;2023-11-21T06:07:10;99594.63;;;10.77;73.62
76819;BME280;65772;51.096;17.006;2023-11-21T06:09:41;99598.72;;;10.77;73.62
76819;BME280;65772;51.096;17.006;2023-11-21T06:12:13;99603.14;;;10.76;73.81
76819;BME280;65772;51.096;17.006;2023-11-21T06:14:45;99604.84;;;10.76;74.04
76819;BME280;65772;51.096;17.006;2023-11-21T06:17:17;99609.59;;;10.74;74.18
76819;BME280;65772;51.096;17.006;2023-11-21T06:19:48;99612.66;;;10.74;73.80
76819;BME280;65772;51.096;17.006;2023-11-21T06:22:18;99620.52;;;10.74;74.12
76819;BME280;65772;51.096;17.006;2023-11-21T06:24:49;99622.19;;;10.73;73.95
76819;BME280;65772;51.096;17.006;2023-11-21T06:27:20;99625.41;;;10.71;74.07
76819;BME280;65772;51.096;17.006;2023-11-21T06:29:50;99629.84;;;10.71;74.25
76819;BME280;65772;51.096;17.006;2023-11-21T06:32:21;99634.43;;;10.70;74.19
76819;BME280;65772;51.096;17.006;2023-11-21T06:34:51;99636.66;;;10.69;74.36
76819;BME280;65772;51.096;17.006;2023-11-21T06:37:23;99638.54;;;10.70;74.18
76819;BME280;65772;51.096;17.006;2023-11-21T06:39:54;99640.25;;;10.70;73.93
76819;BME280;65772;51.096;17.006;2023-11-21T06:42:26;99636.94;;;10.66;73.72
76819;BME280;65772;51.096;17.006;2023-11-21T06:44:58;99638.09;;;10.64;74.00
76819;BME280;65772;51.096;17.006;2023-11-21T06:47:31;99640.46;;;10.63;73.87
76819;BME280;65772;51.096;17.006;2023-11-21T06:50:02;99647.52;;;10.66;74.00
76819;BME280;65772;51.096;17.006;2023-11-21T06:52:33;99648.20;;;10.65;73.79
76819;BME280;65772;51.096;17.006;2023-11-21T06:55:04;99650.73;;;10.65;73.93
76819;BME280;65772;51.096;17.006;2023-11-21T06:57:38;99652.24;;;10.63;73.51
76819;BME280;65772;51.096;17.006;2023-11-21T07:00:10;99650.34;;;10.62;73.76
76819;BME280;65772;51.096;17.006;2023-11-21T07:02:41;99650.87;;;10.62;73.89
76819;BME280;65772;51.096;17.006;2023-11-21T07:05:12;99649.67;;;10.63;74.03
76819;BME280;65772;51.096;17.006;2023-11-21T07:07:43;99648.14;;;10.63;73.84
76819;BME280;65772;51.096;17.006;2023-11-21T07:10:15;99650.38;;;10.63;74.10
76819;BME280;65772;51.096;17.006;2023-11-21T07:12:46;99650.41;;;10.66;73.86
76819;BME280;65772;51.096;17.006;2023-11-21T07:15:16;99651.94;;;10.64;73.94
76819;BME280;65772;51.096;17.006;2023-11-21T07:17:49;99658.91;;;10.64;73.92
76819;BME280;65772;51.096;17.006;2023-11-21T07:20:19;99659.15;;;10.67;74.19
76819;BME280;65772;51.096;17.006;2023-11-21T07:22:50;99662.91;;;10.68;74.10
76819;BME280;65772;51.096;17.006;2023-11-21T07:25:21;99658.14;;;10.68;73.90
76819;BME280;65772;51.096;17.006;2023-11-21T07:27:52;99659.02;;;10.69;74.02
76819;BME280;65772;51.096;17.006;2023-11-21T07:30:24;99661.08;;;10.70;74.22
76819;BME280;65772;51.096;17.006;2023-11-21T07:32:54;99665.84;;;10.70;73.99
76819;BME280;65772;51.096;17.006;2023-11-21T07:35:25;99667.02;;;10.68;74.03
76819;BME280;65772;51.096;17.006;2023-11-21T07:37:56;99667.04;;;10.70;73.76
76819;BME280;65772;51.096;17.006;2023-11-21T07:40:26;99672.19;;;10.72;73.87
76819;BME280;65772;51.096;17.006;2023-11-21T07:43:00;99673.59;;;10.74;73.71
76819;BME280;65772;51.096;17.006;2023-11-21T07:45:30;99675.48;;;10.74;73.57
76819;BME280;65772;51.096;17.006;2023-11-21T07:48:01;99674.25;;;10.73;73.56
76819;BME280;65772;51.096;17.006;2023-11-21T07:50:34;99675.57;;;10.69;73.52
76819;BME280;65772;51.096;17.006;2023-11-21T07:53:04;99677.20;;;10.65;73.95
76819;BME280;65772;51.096;17.006;2023-11-21T07:55:35;99677.71;;;10.64;74.20
76819;BME280;65772;51.096;17.006;2023-11-21T07:58:05;99677.90;;;10.66;74.14
76819;BME280;65772;51.096;17.006;2023-11-21T08:00:36;99679.63;;;10.67;74.00
76819;BME280;65772;51.096;17.006;2023-11-21T08:03:08;99678.77;;;10.67;73.99
76819;BME280;65772;51.096;17.006;2023-11-21T08:05:41;99678.42;;;10.66;74.15
76819;BME280;65772;51.096;17.006;2023-11-21T08:08:11;99684.76;;;10.67;74.00
76819;BME280;65772;51.096;17.006;2023-11-21T08:10:42;99685.59;;;10.66;74.03
76819;BME280;65772;51.096;17.006;2023-11-21T08:13:15;99683.94;;;10.69;74.36
76819;BME280;65772;51.096;17.006;2023-11-21T08:15:46;99683.42;;;10.71;74.08
76819;BME280;65772;51.096;17.006;2023-11-21T08:18:17;99682.59;;;10.72;74.25
76819;BME280;65772;51.096;17.006;2023-11-21T08:20:47;99686.54;;;10.72;74.32
76819;BME280;65772;51.096;17.006;2023-11-21T08:23:18;99685.21;;;10.75;74.06
76819;BME280;65772;51.096;17.006;2023-11-21T08:25:48;99688.16;;;10.76;74.03
76819;BME280;65772;51.096;17.006;2023-11-21T08:28:19;99689.02;;;10.77;74.01
76819;BME280;65772;51.096;17.006;2023-11-21T08:30:53;99698.48;;;10.80;73.87
76819;BME280;65772;51.096;17.006;2023-11-21T08:33:23;99695.77;;;10.82;73.79
76819;BME280;65772;51.096;17.006;2023-11-21T08:35:54;99698.16;;;10.82;73.74
76819;BME280;65772;51.096;17.006;2023-11-21T08:38:25;99702.39;;;10.81;73.75
76819;BME280;65772;51.096;17.006;2023-11-21T08:40:55;99701.72;;;10.81;73.93
76819;BME280;65772;51.096;17.006;2023-11-21T08:43:26;99704.45;;;10.81;74.04
76819;BME280;65772;51.096;17.006;2023-11-21T08:45:57;99705.36;;;10.84;73.82
76819;BME280;65772;51.096;17.006;2023-11-21T08:48:27;99706.60;;;10.86;74.10
76819;BME280;65772;51.096;17.006;2023-11-21T08:50:59;99706.17;;;10.90;73.87
76819;BME280;65772;51.096;17.006;2023-11-21T08:53:29;99704.30;;;10.92;73.74
76819;BME280;65772;51.096;17.006;2023-11-21T08:56:01;99708.56;;;10.92;73.76
76819;BME280;65772;51.096;17.006;2023-11-21T08:58:32;99702.75;;;10.90;73.77
76819;BME280;65772;51.096;17.006;2023-11-21T09:01:02;99704.27;;;10.89;73.90
76819;BME280;65772;51.096;17.006;2023-11-21T09:03:33;99703.10;;;10.91;73.92
76819;BME280;65772;51.096;17.006;2023-11-21T09:06:04;99706.02;;;10.92;73.58
76819;BME280;65772;51.096;17.006;2023-11-21T09:08:35;99706.02;;;10.91;73.63
76819;BME280;65772;51.096;17.006;2023-11-21T09:11:05;99709.08;;;10.91;73.81
76819;BME280;65772;51.096;17.006;2023-11-21T09:13:37;99706.70;;;10.92;73.71
76819;BME280;65772;51.096;17.006;2023-11-21T09:16:08;99714.59;;;10.94;73.51
76819;BME280;65772;51.096;17.006;2023-11-21T09:18:40;99713.58;;;10.94;73.72
76819;BME280;65772;51.096;17.006;2023-11-21T09:21:10;99718.52;;;10.94;73.39
76819;BME280;65772;51.096;17.006;2023-11-21T09:23:42;99713.68;;;10.90;73.09
76819;BME280;65772;51.096;17.006;2023-11-21T09:26:13;99716.20;;;10.88;73.13
76819;BME280;65772;51.096;17.006;2023-11-21T09:28:45;99720.58;;;10.85;73.24
76819;BME280;65772;51.096;17.006;2023-11-21T09:31:17;99722.73;;;10.81;73.26
76819;BME280;65772;51.096;17.006;2023-11-21T09:33:52;99723.83;;;10.75;72.94
76819;BME280;65772;51.096;17.006;2023-11-21T09:36:22;99722.34;;;10.70;72.79
76819;BME280;65772;51.096;17.006;2023-11-21T09:38:57;99726.66;;;10.63;72.98
76819;BME280;65772;51.096;17.006;2023-11-21T09:41:40;99724.41;;;10.62;73.19
76819;BME280;65772;51.096;17.006;2023-11-21T09:44:17;99725.20;;;10.58;73.11
76819;BME280;65772;51.096;17.006;2023-11-21T09:46:49;99724.48;;;10.56;72.89
76819;BME280;65772;51.096;17.006;2023-11-21T09:49:22;99731.45;;;10.55;73.19
76819;BME280;65772;51.096;17.006;2023-11-21T09:51:56;99732.63;;;10.53;73.23
76819;BME280;65772;51.096;17.006;2023-11-21T09:54:27;99731.91;;;10.52;73.24
76819;BME280;65772;51.096;17.006;2023-11-21T09:56:58;99731.50;;;10.50;73.42
76819;BME280;65772;51.096;17.006;2023-11-21T09:59:31;99734.91;;;10.48;73.40
76819;BME280;65772;51.096;17.006;2023-11-21T10:02:05;99734.56;;;10.47;73.32
76819;BME280;65772;51.096;17.006;2023-11-21T10:04:42;99734.53;;;10.46;73.61
76819;BME280;65772;51.096;17.006;2023-11-21T10:07:13;99732.97;;;10.45;73.73
76819;BME280;65772;51.096;17.006;2023-11-21T10:09:47;99733.71;;;10.48;73.94
76819;BME280;65772;51.096;17.006;2023-11-21T10:12:18;99738.86;;;10.50;73.97
76819;BME280;65772;51.096;17.006;2023-11-21T10:14:51;99736.79;;;10.49;73.92
76819;BME280;65772;51.096;17.006;2023-11-21T10:17:25;99739.70;;;10.49;74.06
76819;BME280;65772;51.096;17.006;2023-11-21T10:19:59;99741.80;;;10.51;74.38
76819;BME280;65772;51.096;17.006;2023-11-21T10:22:30;99739.44;;;10.53;74.38
76819;BME280;65772;51.096;17.006;2023-11-21T10:25:01;99741.08;;;10.58;74.46
76819;BME280;65772;51.096;17.006;2023-11-21T10:27:31;99747.13;;;10.63;74.62
76819;BME280;65772;51.096;17.006;2023-11-21T10:30:03;99743.13;;;10.67;74.37
76819;BME280;65772;51.096;17.006;2023-11-21T10:32:34;99741.42;;;10.67;74.11
76819;BME280;65772;51.096;17.006;2023-11-21T10:35:06;99743.48;;;10.67;74.32
76819;BME280;65772;51.096;17.006;2023-11-21T10:37:39;99741.46;;;10.69;74.48
76819;BME280;65772;51.096;17.006;2023-11-21T10:40:12;99743.54;;;10.72;74.45
76819;BME280;65772;51.096;17.006;2023-11-21T10:42:41;99743.11;;;10.75;74.33
76819;BME280;65772;51.096;17.006;2023-11-21T10:45:12;99746.58;;;10.78;74.27
76819;BME280;65772;51.096;17.006;2023-11-21T10:47:45;99746.41;;;10.78;74.38
76819;BME280;65772;51.096;17.006;2023-11-21T10:50:15;99748.80;;;10.78;74.28
76819;BME280;65772;51.096;17.006;2023-11-21T10:52:49;99748.66;;;10.79;74.45
76819;BME280;65772;51.096;17.006;2023-11-21T10:55:21;99753.61;;;10.80;74.45
76819;BME280;65772;51.096;17.006;2023-11-21T10:57:54;99760.79;;;10.81;74.54
76819;BME280;65772;51.096;17.006;2023-11-21T11:00:28;99763.56;;;10.83;74.07
76819;BME280;65772;51.096;17.006;2023-11-21T11:03:00;99762.59;;;10.85;74.03
76819;BME280;65772;51.096;17.006;2023-11-21T11:05:31;99763.61;;;10.86;73.89
76819;BME280;65772;51.096;17.006;2023-11-21T11:08:05;99762.61;;;10.86;73.69
76819;BME280;65772;51.096;17.006;2023-11-21T11:10:38;99764.31;;;10.86;73.75
76819;BME280;65772;51.096;17.006;2023-11-21T11:13:09;99764.47;;;10.86;73.66
76819;BME280;65772;51.096;17.006;2023-11-21T11:15:40;99765.56;;;10.88;73.68
76819;BME280;65772;51.096;17.006;2023-11-21T11:18:11;99763.02;;;10.90;73.81
76819;BME280;65772;51.096;17.006;2023-11-21T11:20:45;99761.84;;;10.92;73.85
76819;BME280;65772;51.096;17.006;2023-11-21T11:23:32;99766.00;;;10.94;73.63
76819;BME280;65772;51.096;17.006;2023-11-21T11:26:16;99769.65;;;10.97;73.36
76819;BME280;65772;51.096;17.006;2023-11-21T11:29:00;99769.15;;;10.98;73.46
76819;BME280;65772;51.096;17.006;2023-11-21T11:31:54;99773.42;;;10.98;73.28
76819;BME280;65772;51.096;17.006;2023-11-21T11:34:31;99774.29;;;10.98;73.39
76819;BME280;65772;51.096;17.006;2023-11-21T11:37:04;99776.39;;;11.02;73.52
76819;BME280;65772;51.096;17.006;2023-11-21T11:39:39;99777.09;;;11.03;73.38
76819;BME280;65772;51.096;17.006;2023-11-21T11:42:14;99779.84;;;11.05;73.22
76819;BME280;65772;51.096;17.006;2023-11-21T11:44:53;99788.06;;;11.06;72.86
76819;BME280;65772;51.096;17.006;2023-11-21T11:47:27;99792.16;;;11.06;72.49
76819;BME280;65772;51.096;17.006;2023-11-21T11:50:06;99791.27;;;11.04;72.31
76819;BME280;65772;51.096;17.006;2023-11-21T11:52:42;99793.95;;;11.01;72.33
76819;BME280;65772;51.096;17.006;2023-11-21T11:55:14;99795.05;;;10.96;72.28
76819;BME280;65772;51.096;17.006;2023-11-21T11:57:48;99794.63;;;10.91;72.25
76819;BME280;65772;51.096;17.006;2023-11-21T12:00:35;99797.02;;;10.91;71.89
76819;BME280;65772;51.096;17.006;2023-11-21T12:03:10;99800.41;;;10.89;71.64
76819;BME280;65772;51.096;17.006;2023-11-21T12:05:41;99808.19;;;10.85;71.74
76819;BME280;65772;51.096;17.006;2023-11-21T12:08:17;99812.56;;;10.83;71.38
76819;BME280;65772;51.096;17.006;2023-11-21T12:10:48;99810.61;;;10.79;71.37
76819;BME280;65772;51.096;17.006;2023-11-21T12:13:19;99813.45;;;10.76;71.41
76819;BME280;65772;51.096;17.006;2023-11-21T12:15:50;99813.71;;;10.73;71.18
76819;BME280;65772;51.096;17.006;2023-11-21T12:18:22;99812.96;;;10.69;70.87
76819;BME280;65772;51.096;17.006;2023-11-21T12:20:55;99814.04;;;10.63;70.59
76819;BME280;65772;51.096;17.006;2023-11-21T12:23:26;99816.34;;;10.58;70.73
76819;BME280;65772;51.096;17.006;2023-11-21T12:25:57;99818.39;;;10.58;70.61
76819;BME280;65772;51.096;17.006;2023-11-21T12:28:28;99820.92;;;10.56;70.55
76819;BME280;65772;51.096;17.006;2023-11-21T12:30:58;99824.45;;;10.54;70.40
76819;BME280;65772;51.096;17.006;2023-11-21T12:33:43;99831.92;;;10.53;70.30
76819;BME280;65772;51.096;17.006;2023-11-21T12:36:14;99836.53;;;10.53;70.25
76819;BME280;65772;51.096;17.006;2023-11-21T12:38:45;99841.11;;;10.52;69.69
76819;BME280;65772;51.096;17.006;2023-11-21T12:41:17;99844.63;;;10.48;69.27
76819;BME280;65772;51.096;17.006;2023-11-21T12:43:47;99850.86;;;10.44;69.35
76819;BME280;65772;51.096;17.006;2023-11-21T12:46:18;99859.30;;;10.41;68.51
76819;BME280;65772;51.096;17.006;2023-11-21T12:48:50;99868.07;;;10.35;68.43
76819;BME280;65772;51.096;17.006;2023-11-21T12:51:20;99868.94;;;10.29;68.77
76819;BME280;65772;51.096;17.006;2023-11-21T12:53:51;99872.23;;;10.23;68.44
76819;BME280;65772;51.096;17.006;2023-11-21T12:56:23;99876.33;;;10.17;68.52
76819;BME280;65772;51.096;17.006;2023-11-21T12:58:55;99877.74;;;10.13;68.24
76819;BME280;65772;51.096;17.006;2023-11-21T13:01:28;99884.02;;;10.12;68.45
76819;BME280;65772;51.096;17.006;2023-11-21T13:03:59;99886.23;;;10.11;68.35
76819;BME280;65772;51.096;17.006;2023-11-21T13:06:32;99890.30;;;10.10;68.34
76819;BME280;65772;51.096;17.006;2023-11-21T13:09:08;99894.70;;;10.09;67.89
76819;BME280;65772;51.096;17.006;2023-11-21T13:11:40;99900.48;;;10.07;68.09
76819;BME280;65772;51.096;17.006;2023-11-21T13:14:11;99904.16;;;10.04;67.80